createdAt,value
2023-01-04T00:01:41.492Z,101692.94
2023-01-04T00:04:43.784Z,101708.22
2023-01-04T00:07:46.076Z,101695.41
2023-01-04T00:10:48.419Z,101706.72
2023-01-04T00:13:53.445Z,101710.75
2023-01-04T00:16:55.860Z,101713.59
2023-01-04T00:19:58.309Z,101703.56
2023-01-04T00:23:00.682Z,101700.84
2023-01-04T00:26:03.068Z,101708.75
2023-01-04T00:29:07.261Z,101715.63
2023-01-04T00:32:09.570Z,101710.25
2023-01-04T00:35:27.110Z,101717.16
2023-01-04T00:38:35.234Z,101714.63
2023-01-04T00:41:59.404Z,101713.94
2023-01-04T00:45:02.856Z,101712.50
2023-01-04T00:48:05.248Z,101713.47
2023-01-04T00:51:07.647Z,101716.63
2023-01-04T00:54:14.459Z,101716.06
2023-01-04T00:57:16.845Z,101717.28
2023-01-04T01:00:19.346Z,101716.78
2023-01-04T01:03:21.761Z,101718.03
2023-01-04T01:06:25.090Z,101714.69
2023-01-04T01:09:27.713Z,101705.81
2023-01-04T01:12:30.667Z,101708.50
2023-01-04T01:15:35.441Z,101717.44
2023-01-04T01:18:39.960Z,101698.34
2023-01-04T01:21:42.744Z,101705.84
2023-01-04T01:24:45.235Z,101717.44
2023-01-04T01:27:47.629Z,101714.25
2023-01-04T01:30:50.103Z,101687.78
2023-01-04T01:33:54.875Z,101707.88
2023-01-04T01:36:57.201Z,101699.66
2023-01-04T01:39:59.603Z,101698.44
2023-01-04T01:43:01.925Z,101695.13
2023-01-04T01:46:04.432Z,101698.97
2023-01-04T01:49:18.781Z,101689.28
2023-01-04T01:52:30.993Z,101675.50
2023-01-04T01:55:34.348Z,101667.34
2023-01-04T01:58:40.439Z,101668.00
2023-01-04T02:01:42.989Z,101666.81
2023-01-04T02:04:48.074Z,101666.00
2023-01-04T02:07:51.007Z,101662.47
2023-01-04T02:10:53.379Z,101663.81
2023-01-04T02:14:15.129Z,101657.13
2023-01-04T02:17:27.459Z,101654.94
2023-01-04T02:20:35.651Z,101653.09
2023-01-04T02:23:59.634Z,101650.75
2023-01-04T02:27:23.116Z,101653.63
2023-01-04T02:31:02.760Z,101649.25
2023-01-04T02:34:16.852Z,101650.41
2023-01-04T02:37:37.559Z,101650.94
2023-01-04T02:40:48.375Z,101633.66
2023-01-04T02:44:14.959Z,101652.28
2023-01-04T02:47:44.413Z,101647.41
2023-01-04T02:50:58.041Z,101651.94
2023-01-04T02:54:04.853Z,101632.88
2023-01-04T02:57:23.436Z,101634.88
2023-01-04T03:00:34.797Z,101632.38
2023-01-04T03:04:28.680Z,101625.97
2023-01-04T03:07:41.773Z,101625.28
2023-01-04T03:10:51.448Z,101610.72
2023-01-04T03:13:54.611Z,101608.91
2023-01-04T03:16:57.236Z,101596.88
2023-01-04T03:20:00.526Z,101600.88
2023-01-04T03:23:27.943Z,101615.31
2023-01-04T03:26:56.355Z,101617.16
2023-01-04T03:30:21.785Z,101612.13
2023-01-04T03:33:43.434Z,101607.59
2023-01-04T03:36:57.812Z,101600.41
2023-01-04T03:40:24.349Z,101595.56
2023-01-04T03:43:56.864Z,101603.75
2023-01-04T03:47:24.278Z,101600.75
2023-01-04T03:50:31.184Z,101592.03
2023-01-04T03:53:36.714Z,101593.91
2023-01-04T03:56:44.051Z,101580.47
2023-01-04T03:59:52.980Z,101576.69
2023-01-04T04:03:07.425Z,101570.00
2023-01-04T04:06:28.593Z,101570.97
2023-01-04T04:09:31.040Z,101566.47
2023-01-04T04:12:33.433Z,101567.81
2023-01-04T04:15:36.924Z,101554.09
2023-01-04T04:18:39.736Z,101550.91
2023-01-04T04:21:42.471Z,101553.94
2023-01-04T04:24:44.809Z,101538.19
2023-01-04T04:27:47.062Z,101525.97
2023-01-04T04:30:52.866Z,101534.16
2023-01-04T04:33:55.104Z,101523.06
2023-01-04T04:36:57.394Z,101519.06
2023-01-04T04:39:59.788Z,101522.72
2023-01-04T04:43:02.111Z,101498.84
2023-01-04T04:46:04.644Z,101506.38
2023-01-04T04:49:07.818Z,101494.84
2023-01-04T04:52:10.243Z,101488.81
2023-01-04T04:55:12.731Z,101487.16
2023-01-04T04:58:15.157Z,101469.25
2023-01-04T05:01:17.826Z,101468.25
2023-01-04T05:04:20.295Z,101470.91
2023-01-04T05:07:22.649Z,101467.34
2023-01-04T05:10:24.934Z,101453.66
2023-01-04T05:13:27.251Z,101452.25
2023-01-04T05:16:29.748Z,101437.88
2023-01-04T05:19:32.129Z,101421.09
2023-01-04T05:22:34.483Z,101422.06
2023-01-04T05:25:36.724Z,101430.47
2023-01-04T05:28:39.183Z,101430.44
2023-01-04T05:31:41.454Z,101422.38
2023-01-04T05:34:43.717Z,101416.75
2023-01-04T05:37:46.203Z,101419.41
2023-01-04T05:40:49.317Z,101416.38
2023-01-04T05:43:51.651Z,101419.50
2023-01-04T05:46:53.990Z,101408.72
2023-01-04T05:49:56.281Z,101411.00
2023-01-04T05:52:58.643Z,101410.13
2023-01-04T05:56:00.976Z,101420.84
2023-01-04T05:59:03.334Z,101422.06
2023-01-04T06:02:06.214Z,101429.06
2023-01-04T06:05:10.585Z,101424.31
2023-01-04T06:08:12.906Z,101408.34
2023-01-04T06:11:15.284Z,101405.19
2023-01-04T06:14:17.613Z,101389.53
2023-01-04T06:17:20.428Z,101399.97
2023-01-04T06:20:23.032Z,101385.84
2023-01-04T06:23:25.486Z,101387.13
2023-01-04T06:26:27.912Z,101393.31
2023-01-04T06:29:30.209Z,101395.25
2023-01-04T06:32:32.585Z,101380.91
2023-01-04T06:35:36.162Z,101370.03
2023-01-04T06:38:38.492Z,101365.66
2023-01-04T06:41:40.811Z,101369.00
2023-01-04T06:44:43.204Z,101358.44
2023-01-04T06:47:45.764Z,101349.78
2023-01-04T06:50:48.112Z,101342.84
2023-01-04T06:53:50.755Z,101323.13
2023-01-04T06:56:53.096Z,101316.78
2023-01-04T06:59:55.429Z,101315.16
2023-01-04T07:03:13.474Z,101316.03
2023-01-04T07:06:17.756Z,101314.38
2023-01-04T07:09:20.084Z,101293.97
2023-01-04T07:12:22.431Z,101276.66
2023-01-04T07:15:37.344Z,101271.31
2023-01-04T07:18:42.191Z,101246.25
2023-01-04T07:21:44.496Z,101243.19
2023-01-04T07:24:46.818Z,101242.09
2023-01-04T07:27:53.608Z,101245.31
2023-01-04T07:30:55.938Z,101237.16
2023-01-04T07:33:58.409Z,101239.56
2023-01-04T07:37:00.783Z,101247.59
2023-01-04T07:40:04.027Z,101244.63
2023-01-04T07:43:06.522Z,101250.78
2023-01-04T07:46:08.832Z,101235.50
2023-01-04T07:49:18.616Z,101233.78
2023-01-04T07:52:21.502Z,101236.19
2023-01-04T07:55:23.879Z,101224.53
2023-01-04T07:58:27.096Z,101202.66
2023-01-04T08:01:29.480Z,101207.41
2023-01-04T08:04:35.179Z,101200.94
2023-01-04T08:07:37.803Z,101196.75
2023-01-04T08:10:40.188Z,101198.47
2023-01-04T08:13:43.264Z,101182.53
2023-01-04T08:16:45.610Z,101185.44
2023-01-04T08:19:48.068Z,101179.38
2023-01-04T08:22:50.574Z,101180.56
2023-01-04T08:25:52.806Z,101163.56
2023-01-04T08:28:56.672Z,101163.44
2023-01-04T08:31:58.998Z,101160.06
2023-01-04T08:35:01.382Z,101139.38
2023-01-04T08:38:37.000Z,101074.06
2023-01-04T08:41:56.153Z,101126.75
2023-01-04T08:44:48.541Z,101128.94
2023-01-04T08:47:50.877Z,101104.09
2023-01-04T08:50:53.180Z,101116.72
2023-01-04T08:53:56.176Z,101101.41
2023-01-04T08:56:58.487Z,101076.41
2023-01-04T09:00:00.925Z,101073.22
2023-01-04T09:03:03.349Z,101070.94
2023-01-04T09:06:08.307Z,101060.81
2023-01-04T09:09:10.744Z,101057.88
2023-01-04T09:12:13.281Z,101048.56
2023-01-04T09:15:15.731Z,101045.25
2023-01-04T09:18:33.551Z,101044.84
2023-01-04T09:21:36.086Z,101033.09
2023-01-04T09:24:38.524Z,101021.16
2023-01-04T09:27:40.851Z,101015.34
2023-01-04T09:30:43.299Z,100994.44
2023-01-04T09:34:13.558Z,100998.84
2023-01-04T09:37:09.937Z,100992.59
2023-01-04T09:40:21.748Z,100982.09
2023-01-04T09:43:24.385Z,100977.31
2023-01-04T09:46:33.476Z,100957.00
2023-01-04T09:49:40.322Z,100955.38
2023-01-04T09:53:05.665Z,100951.66
2023-01-04T09:56:17.871Z,100923.69
2023-01-04T09:59:27.030Z,100919.56
2023-01-04T10:02:49.549Z,100906.94
2023-01-04T10:05:54.752Z,100885.63
2023-01-04T10:09:02.228Z,100870.88
2023-01-04T10:12:22.601Z,100865.69
2023-01-04T10:15:32.740Z,100854.66
2023-01-04T10:20:59.690Z,100835.38
2023-01-04T10:22:56.753Z,100830.22
2023-01-04T10:26:08.401Z,100833.31
2023-01-04T10:29:38.440Z,100825.00
2023-01-04T10:32:45.636Z,100811.28
2023-01-04T10:35:48.961Z,100805.50
2023-01-04T10:38:58.438Z,100776.50
2023-01-04T10:42:26.295Z,100780.34
2023-01-04T10:45:36.993Z,100776.81
2023-01-04T10:49:08.950Z,100755.69
2023-01-04T10:52:13.179Z,100746.16
2023-01-04T10:55:27.717Z,100739.88
2023-01-04T10:58:35.454Z,100709.97
2023-01-04T11:01:54.778Z,100714.81
2023-01-04T11:05:03.736Z,100705.81
2023-01-04T11:08:37.388Z,100702.31
2023-01-04T11:11:47.276Z,100682.41
2023-01-04T11:14:50.986Z,100637.72
2023-01-04T11:17:53.482Z,100659.00
2023-01-04T11:20:55.948Z,100642.91
2023-01-04T11:24:21.961Z,100627.56
2023-01-04T11:27:27.187Z,100618.38
2023-01-04T11:30:37.315Z,100610.50
2023-01-04T11:33:55.920Z,100604.94
2023-01-04T11:36:58.763Z,100597.84
2023-01-04T11:40:13.512Z,100579.66
2023-01-04T11:43:20.550Z,100576.75
2023-01-04T11:46:24.709Z,100573.91
2023-01-04T11:49:35.892Z,100566.78
2023-01-04T11:52:39.773Z,100559.81
2023-01-04T11:55:42.167Z,100543.91
2023-01-04T11:58:46.850Z,100535.47
2023-01-04T12:01:51.747Z,100521.63
2023-01-04T12:04:54.247Z,100509.31
2023-01-04T12:07:56.864Z,100498.03
2023-01-04T12:11:00.568Z,100480.09
2023-01-04T12:14:05.508Z,100489.66
2023-01-04T12:17:29.417Z,100481.25
2023-01-04T12:20:31.825Z,100466.28
2023-01-04T12:23:34.608Z,100467.50
2023-01-04T12:26:43.298Z,100452.50
2023-01-04T12:29:53.590Z,100449.16
2023-01-04T12:32:55.923Z,100437.63
2023-01-04T12:36:14.954Z,100424.38
2023-01-04T12:39:17.178Z,100409.16
2023-01-04T12:42:27.544Z,100403.38
2023-01-04T12:45:29.863Z,100390.28
2023-01-04T12:48:51.253Z,100387.59
2023-01-04T12:55:35.150Z,100371.63
2023-01-04T12:59:15.260Z,100358.38
2023-01-04T13:02:52.070Z,100347.34
2023-01-04T13:06:06.244Z,100332.53
2023-01-04T13:09:24.929Z,100316.84
2023-01-04T13:13:02.048Z,100275.44
2023-01-04T13:16:13.011Z,100289.56
2023-01-04T13:19:28.863Z,100279.34
2023-01-04T13:22:34.066Z,100273.66
2023-01-04T13:25:36.347Z,100266.34
2023-01-04T13:28:38.752Z,100245.47
2023-01-04T13:32:00.212Z,100222.03
2023-01-04T13:35:11.467Z,100231.59
2023-01-04T13:38:17.174Z,100216.59
2023-01-04T13:41:23.126Z,100202.91
2023-01-04T13:45:00.191Z,100189.03
2023-01-04T13:47:58.612Z,100185.91
2023-01-04T13:51:04.101Z,100171.94
2023-01-04T13:54:17.029Z,100164.44
2023-01-04T13:57:24.527Z,100165.81
2023-01-04T14:00:42.990Z,100163.50
2023-01-04T14:03:45.468Z,100157.63
2023-01-04T14:06:52.186Z,100145.09
2023-01-04T14:09:58.659Z,100141.06
2023-01-04T14:13:01.818Z,100127.47
2023-01-04T14:16:14.990Z,100126.88
2023-01-04T14:19:54.080Z,100118.88
2023-01-04T14:22:58.206Z,100091.03
2023-01-04T14:26:00.428Z,100096.22
2023-01-04T14:29:21.371Z,100097.09
2023-01-04T14:32:23.734Z,100070.94
2023-01-04T14:35:27.495Z,100079.72
2023-01-04T14:38:30.075Z,100057.09
2023-01-04T14:41:41.022Z,100064.31
2023-01-04T14:44:43.259Z,100048.25
2023-01-04T14:47:45.684Z,100049.94
2023-01-04T14:50:48.024Z,100042.44
2023-01-04T14:53:51.409Z,100026.91
2023-01-04T14:56:54.687Z,100030.28
2023-01-04T14:59:57.093Z,100018.63
2023-01-04T15:02:59.587Z,100000.59
2023-01-04T15:06:02.107Z,100003.84
2023-01-04T15:09:04.585Z,99993.91
2023-01-04T15:12:06.965Z,99977.59
2023-01-04T15:15:09.966Z,99989.66
2023-01-04T15:18:12.307Z,99952.53
2023-01-04T15:21:14.908Z,99955.13
2023-01-04T15:24:17.490Z,99952.22
2023-01-04T15:27:21.624Z,99942.22
2023-01-04T15:30:25.651Z,99939.19
2023-01-04T15:33:32.317Z,99936.31
2023-01-04T15:36:38.682Z,99917.34
2023-01-04T15:39:41.328Z,99920.91
2023-01-04T15:42:59.319Z,99913.53
2023-01-04T15:46:07.502Z,99915.09
2023-01-04T15:49:16.709Z,99901.53
2023-01-04T15:52:19.729Z,99895.22
2023-01-04T15:55:22.115Z,99869.97
2023-01-04T15:58:24.492Z,99867.97
2023-01-04T16:01:26.890Z,99859.94
2023-01-04T16:04:29.661Z,99843.75
2023-01-04T16:07:36.313Z,99839.53
2023-01-04T16:10:39.036Z,99820.88
2023-01-04T16:13:45.879Z,99812.13
2023-01-04T16:16:48.262Z,99819.84
2023-01-04T16:19:50.737Z,99817.97
2023-01-04T16:22:53.011Z,99823.22
2023-01-04T16:26:25.069Z,99809.69
2023-01-04T16:29:27.607Z,99805.28
2023-01-04T16:32:30.027Z,99782.75
2023-01-04T16:35:33.370Z,99790.59
2023-01-04T16:38:37.305Z,99774.41
2023-01-04T16:41:39.771Z,99759.75
2023-01-04T16:44:42.077Z,99756.31
2023-01-04T16:47:46.162Z,99766.56
2023-01-04T16:50:48.426Z,99755.22
2023-01-04T16:53:51.455Z,99751.94
2023-01-04T16:56:56.563Z,99740.84
2023-01-04T16:59:58.961Z,99724.78
2023-01-04T17:03:01.336Z,99726.09
2023-01-04T17:06:11.721Z,99712.63
2023-01-04T17:09:20.207Z,99710.75
2023-01-04T17:15:45.217Z,99687.97
2023-01-04T17:18:48.510Z,99683.31
2023-01-04T17:21:51.044Z,99680.03
2023-01-04T17:24:53.696Z,99672.19
2023-01-04T17:27:56.046Z,99663.81
2023-01-04T17:30:58.381Z,99657.81
2023-01-04T17:34:00.961Z,99652.13
2023-01-04T17:37:03.290Z,99652.78
2023-01-04T17:40:06.072Z,99650.50
2023-01-04T17:43:08.386Z,99637.59
2023-01-04T17:46:17.699Z,99641.69
2023-01-04T17:49:30.796Z,99647.16
2023-01-04T17:52:34.104Z,99619.47
2023-01-04T17:55:36.599Z,99610.66
2023-01-04T17:58:39.438Z,99611.25
2023-01-04T18:01:41.766Z,99609.25
2023-01-04T18:04:44.185Z,99613.44
2023-01-04T18:07:46.531Z,99602.91
2023-01-04T18:11:06.609Z,99595.09
2023-01-04T18:14:14.186Z,99585.88
2023-01-04T18:17:16.930Z,99585.88
2023-01-04T18:20:24.725Z,99579.66
2023-01-04T18:23:29.762Z,99571.59
2023-01-04T18:26:41.581Z,99541.47
2023-01-04T18:29:56.065Z,99561.81
2023-01-04T18:32:58.679Z,99567.31
2023-01-04T18:36:06.160Z,99557.28
2023-01-04T18:39:08.529Z,99556.22
2023-01-04T18:42:10.906Z,99544.03
2023-01-04T18:45:13.306Z,99538.94
2023-01-04T18:48:15.783Z,99543.28
2023-01-04T18:51:20.930Z,99537.56
2023-01-04T18:54:23.652Z,99529.19
2023-01-04T18:57:26.075Z,99534.88
2023-01-04T19:00:29.963Z,99523.78
2023-01-04T19:03:34.440Z,99524.06
2023-01-04T19:06:36.779Z,99515.72
2023-01-04T19:09:39.708Z,99511.88
2023-01-04T19:12:42.886Z,99509.75
2023-01-04T19:15:47.737Z,99511.66
2023-01-04T19:18:50.487Z,99501.41
2023-01-04T19:21:52.981Z,99503.78
2023-01-04T19:24:55.341Z,99489.19
2023-01-04T19:27:57.834Z,99488.66
2023-01-04T19:31:07.203Z,99478.91
2023-01-04T19:34:10.230Z,99474.84
2023-01-04T19:37:13.772Z,99475.13
2023-01-04T19:40:16.216Z,99471.63
2023-01-04T19:43:18.630Z,99475.69
2023-01-04T19:46:21.048Z,99462.13
2023-01-04T19:49:23.596Z,99446.97
2023-01-04T19:52:26.269Z,99448.03
2023-01-04T19:55:29.867Z,99449.09
2023-01-04T19:58:32.475Z,99446.69
2023-01-04T20:01:34.992Z,99451.25
2023-01-04T20:04:37.468Z,99454.50
2023-01-04T20:07:39.804Z,99449.63
2023-01-04T20:10:42.268Z,99447.16
2023-01-04T20:13:44.650Z,99445.00
2023-01-04T20:16:47.011Z,99436.63
2023-01-04T20:19:49.408Z,99442.03
2023-01-04T20:22:51.815Z,99436.59
2023-01-04T20:25:55.269Z,99421.41
2023-01-04T20:28:57.699Z,99427.59
2023-01-04T20:32:00.986Z,99423.31
2023-01-04T20:35:03.784Z,99409.47
2023-01-04T20:38:06.226Z,99405.69
2023-01-04T20:41:10.456Z,99398.63
2023-01-04T20:44:12.613Z,99389.31
2023-01-04T20:47:15.566Z,99388.19
2023-01-04T20:50:17.856Z,99371.47
2023-01-04T20:53:20.661Z,99357.13
2023-01-04T20:56:28.619Z,99357.41
2023-01-04T20:59:31.104Z,99366.25
2023-01-04T21:02:38.078Z,99358.13
2023-01-04T21:05:43.223Z,99363.53
2023-01-04T21:08:46.734Z,99364.63
2023-01-04T21:11:49.146Z,99351.88
2023-01-04T21:14:51.431Z,99342.84
2023-01-04T21:17:53.699Z,99350.47
2023-01-04T21:20:56.157Z,99352.31
2023-01-04T21:23:58.505Z,99325.03
2023-01-04T21:27:01.728Z,99331.97
2023-01-04T21:30:04.819Z,99328.38
2023-01-04T21:33:07.919Z,99326.28
2023-01-04T21:36:21.884Z,99296.41
2023-01-04T21:39:24.171Z,99301.06
2023-01-04T21:42:26.676Z,99303.97
2023-01-04T21:45:29.062Z,99298.31
2023-01-04T21:48:31.456Z,99282.56
2023-01-04T21:51:34.347Z,99284.94
2023-01-04T21:54:37.984Z,99294.69
2023-01-04T21:57:40.328Z,99281.13
2023-01-04T22:00:42.617Z,99283.50
2023-01-04T22:03:45.479Z,99289.03
2023-01-04T22:06:47.884Z,99296.19
2023-01-04T22:09:57.038Z,99268.38
2023-01-04T22:12:59.846Z,99281.59
2023-01-04T22:16:11.001Z,99278.28
2023-01-04T22:19:14.809Z,99280.50
2023-01-04T22:22:17.242Z,99279.97
2023-01-04T22:25:21.344Z,99265.84
2023-01-04T22:28:24.717Z,99268.72
2023-01-04T22:31:27.132Z,99279.34
2023-01-04T22:34:29.667Z,99243.25
2023-01-04T22:37:31.979Z,99269.59
2023-01-04T22:40:34.823Z,99259.19
2023-01-04T22:43:37.583Z,99255.47
2023-01-04T22:46:40.021Z,99249.97
2023-01-04T22:49:42.333Z,99238.75
2023-01-04T22:52:50.660Z,99240.72
2023-01-04T22:56:18.520Z,99237.31
2023-01-04T22:59:15.690Z,99236.59
2023-01-04T23:02:18.004Z,99228.81
2023-01-04T23:05:20.313Z,99217.94
2023-01-04T23:08:22.700Z,99220.69
2023-01-04T23:11:25.429Z,99214.13
2023-01-04T23:14:27.856Z,99210.94
2023-01-04T23:17:30.595Z,99205.75
2023-01-04T23:20:33.427Z,99206.31
2023-01-04T23:23:35.976Z,99192.88
2023-01-04T23:26:38.419Z,99176.88
2023-01-04T23:29:41.274Z,99166.66
2023-01-04T23:32:44.236Z,99188.81
2023-01-04T23:35:46.568Z,99182.03
2023-01-04T23:38:57.727Z,99193.91
2023-01-04T23:42:00.096Z,99176.72
2023-01-04T23:45:02.370Z,99162.56
2023-01-04T23:48:04.927Z,99176.06
2023-01-04T23:51:07.273Z,99169.19
2023-01-04T23:54:10.171Z,99158.13
2023-01-04T23:57:12.442Z,99156.03
